createdAt,value
2022-08-22T00:00:53.102Z,4.91
2022-08-22T00:01:50.732Z,4.81
2022-08-22T00:02:44.825Z,4.35
2022-08-22T00:02:45.810Z,4.47
2022-08-22T00:02:47.157Z,4.41
2022-08-22T00:02:49.029Z,6.61
2022-08-22T00:02:53.748Z,6.51
2022-08-22T00:03:09.131Z,4.95
2022-08-22T00:03:10.471Z,4.95
2022-08-22T00:03:18.990Z,4.13
2022-08-22T00:04:22.366Z,4.42
2022-08-22T00:05:22.787Z,4.64
2022-08-22T00:06:29.107Z,4.40
2022-08-22T00:07:42.455Z,4.54
2022-08-22T00:09:03.975Z,4.09
2022-08-22T00:10:25.302Z,4.61
2022-08-22T00:11:25.934Z,4.52
2022-08-22T00:12:52.997Z,4.35
2022-08-22T00:14:01.671Z,4.42
2022-08-22T00:15:06.788Z,4.64
2022-08-22T00:16:13.031Z,4.22
2022-08-22T00:17:43.092Z,4.45
2022-08-22T00:18:50.961Z,4.56
2022-08-22T00:20:00.363Z,4.32
2022-08-22T00:21:10.762Z,4.12
2022-08-22T00:22:17.898Z,4.26
2022-08-22T00:23:18.166Z,4.39
2022-08-22T00:24:15.528Z,4.51
2022-08-22T00:25:33.158Z,4.52
2022-08-22T00:26:44.646Z,4.31
2022-08-22T00:27:52.652Z,4.67
2022-08-22T00:29:08.876Z,4.14
2022-08-22T00:30:12.229Z,3.95
2022-08-22T00:31:24.649Z,4.51
2022-08-22T00:32:21.976Z,4.12
2022-08-22T00:33:40.336Z,4.36
2022-08-22T00:34:40.806Z,4.15
2022-08-22T00:35:49.109Z,4.61
2022-08-22T00:36:47.848Z,5.15
2022-08-22T00:37:51.854Z,4.90
2022-08-22T00:38:54.855Z,4.85
2022-08-22T00:40:10.893Z,4.48
2022-08-22T00:41:08.301Z,4.64
2022-08-22T00:42:14.863Z,4.84
2022-08-22T00:43:53.105Z,4.75
2022-08-22T00:44:53.272Z,4.65
2022-08-22T00:45:59.795Z,4.58
2022-08-22T00:47:15.231Z,4.92
2022-08-22T00:48:27.692Z,4.47
2022-08-22T00:49:40.478Z,4.59
2022-08-22T00:50:56.469Z,4.36
2022-08-22T00:51:53.814Z,4.82
2022-08-22T00:53:14.288Z,4.83
2022-08-22T00:54:18.012Z,4.74
2022-08-22T00:55:35.064Z,4.81
2022-08-22T00:56:35.362Z,4.54
2022-08-22T00:57:47.188Z,4.65
2022-08-22T00:58:50.217Z,4.64
2022-08-22T00:59:53.441Z,5.03
2022-08-22T01:00:53.687Z,4.78
2022-08-22T01:02:10.717Z,4.89
2022-08-22T01:03:26.927Z,5.03
2022-08-22T01:04:42.878Z,5.54
2022-08-22T01:05:55.301Z,5.08
2022-08-22T01:07:03.267Z,5.04
2022-08-22T01:08:24.797Z,5.30
2022-08-22T01:09:27.856Z,5.17
2022-08-22T01:10:43.050Z,4.98
2022-08-22T01:11:43.128Z,5.03
2022-08-22T01:12:55.541Z,4.84
2022-08-22T01:14:06.917Z,4.67
2022-08-22T01:15:04.325Z,4.61
2022-08-22T01:16:20.235Z,4.73
2022-08-22T01:17:20.425Z,4.83
2022-08-22T01:18:50.289Z,4.34
2022-08-22T01:19:53.526Z,4.29
2022-08-22T01:21:09.490Z,4.98
2022-08-22T01:22:06.851Z,5.30
2022-08-22T01:23:16.004Z,5.12
2022-08-22T01:25:05.857Z,4.76
2022-08-22T01:26:32.971Z,5.09
2022-08-22T01:27:55.117Z,4.82
2022-08-22T01:29:18.666Z,4.98
2022-08-22T01:30:44.212Z,4.73
2022-08-22T01:31:47.620Z,4.92
2022-08-22T01:32:47.834Z,5.18
2022-08-22T01:33:57.044Z,5.30
2022-08-22T01:35:09.589Z,4.94
2022-08-22T01:36:30.599Z,5.24
2022-08-22T01:37:27.972Z,5.30
2022-08-22T01:38:25.881Z,5.30
2022-08-22T01:39:26.088Z,5.06
2022-08-22T01:40:53.493Z,5.34
2022-08-22T01:42:03.712Z,5.74
2022-08-22T01:43:01.037Z,5.25
2022-08-22T01:44:03.442Z,5.42
2022-08-22T01:45:12.844Z,5.17
2022-08-22T01:46:31.341Z,5.04
2022-08-22T01:47:45.717Z,5.31
2022-08-22T01:48:59.257Z,5.34
2022-08-22T01:50:01.591Z,5.27
2022-08-22T01:51:13.026Z,5.59
2022-08-22T01:52:20.056Z,5.54
2022-08-22T01:53:24.190Z,4.96
2022-08-22T01:54:36.510Z,5.53
2022-08-22T01:55:53.522Z,5.09
2022-08-22T01:56:50.889Z,5.22
2022-08-22T01:57:51.271Z,5.49
2022-08-22T01:58:59.855Z,5.15
2022-08-22T02:00:07.216Z,5.60
2022-08-22T02:01:23.029Z,5.68
2022-08-22T02:02:23.557Z,5.29
2022-08-22T02:03:43.697Z,4.91
2022-08-22T02:04:41.195Z,5.23
2022-08-22T02:05:48.321Z,4.86
2022-08-22T02:06:53.227Z,5.51
2022-08-22T02:08:00.592Z,5.62
2022-08-22T02:09:07.002Z,5.29
2022-08-22T02:10:07.224Z,4.87
2022-08-22T02:11:10.647Z,5.08
2022-08-22T02:12:37.270Z,5.10
2022-08-22T02:13:55.940Z,5.66
2022-08-22T02:15:11.756Z,5.64
2022-08-22T02:16:14.117Z,5.23
2022-08-22T02:17:23.636Z,5.19
2022-08-22T02:18:27.536Z,5.80
2022-08-22T02:19:34.828Z,5.22
2022-08-22T02:20:41.173Z,4.84
2022-08-22T02:21:44.350Z,5.47
2022-08-22T02:22:55.229Z,5.70
2022-08-22T02:23:52.560Z,5.39
2022-08-22T02:25:00.409Z,5.73
2022-08-22T02:26:03.635Z,5.93
2022-08-22T02:27:19.768Z,5.49
2022-08-22T02:28:29.815Z,5.50
2022-08-22T02:29:49.988Z,5.59
2022-08-22T02:30:52.993Z,5.59
2022-08-22T02:31:53.045Z,5.44
2022-08-22T02:32:59.393Z,5.61
2022-08-22T02:33:58.482Z,5.16
2022-08-22T02:35:05.563Z,5.57
2022-08-22T02:36:08.377Z,5.43
2022-08-22T02:37:12.901Z,5.28
2022-08-22T02:38:19.211Z,5.12
2022-08-22T02:39:35.148Z,5.73
2022-08-22T02:40:55.864Z,5.63
2022-08-22T02:42:11.670Z,5.40
2022-08-22T02:43:29.902Z,5.74
2022-08-22T02:44:34.189Z,5.71
2022-08-22T02:45:42.825Z,5.67
2022-08-22T02:46:40.180Z,5.65
2022-08-22T02:47:43.416Z,5.91
2022-08-22T02:48:49.696Z,5.38
2022-08-22T02:50:02.215Z,5.50
2022-08-22T02:51:18.108Z,5.96
2022-08-22T02:52:29.265Z,6.05
2022-08-22T02:53:37.484Z,6.44
2022-08-22T02:54:53.541Z,6.77
2022-08-22T02:55:57.701Z,6.39
2022-08-22T02:57:02.424Z,6.64
2022-08-22T02:58:17.780Z,6.99
2022-08-22T02:59:32.246Z,7.07
2022-08-22T03:00:41.127Z,6.16
2022-08-22T03:01:46.045Z,6.47
2022-08-22T03:02:44.465Z,6.11
2022-08-22T03:03:43.024Z,6.32
2022-08-22T03:04:40.332Z,6.93
2022-08-22T03:05:37.654Z,6.98
2022-08-22T03:06:39.242Z,7.29
2022-08-22T03:07:42.929Z,6.99
2022-08-22T03:08:47.587Z,7.05
2022-08-22T03:09:59.782Z,7.03
2022-08-22T03:11:06.477Z,7.39
2022-08-22T03:12:29.980Z,8.12
2022-08-22T03:13:43.933Z,8.45
2022-08-22T03:14:56.855Z,7.67
2022-08-22T03:16:07.023Z,7.80
2022-08-22T03:17:30.588Z,7.04
2022-08-22T03:18:46.778Z,7.26
2022-08-22T03:19:52.917Z,7.55
2022-08-22T03:21:09.512Z,8.18
2022-08-22T03:22:12.314Z,7.68
2022-08-22T03:23:38.766Z,8.11
2022-08-22T03:24:54.715Z,8.55
2022-08-22T03:26:07.522Z,7.79
2022-08-22T03:27:32.458Z,8.26
2022-08-22T03:28:37.281Z,8.47
2022-08-22T03:29:42.650Z,8.19
2022-08-22T03:30:40.319Z,7.49
2022-08-22T03:31:38.128Z,7.70
2022-08-22T03:32:47.440Z,8.20
2022-08-22T03:33:46.046Z,7.34
2022-08-22T03:34:58.403Z,7.82
2022-08-22T03:36:03.652Z,7.79
2022-08-22T03:37:07.000Z,7.85
2022-08-22T03:38:10.254Z,7.96
2022-08-22T03:39:33.848Z,7.69
2022-08-22T03:40:54.256Z,8.44
2022-08-22T03:41:51.568Z,8.30
2022-08-22T03:43:08.522Z,7.74
2022-08-22T03:44:05.874Z,8.15
2022-08-22T03:45:03.225Z,7.94
2022-08-22T03:46:07.208Z,7.82
2022-08-22T03:47:23.152Z,8.23
2022-08-22T03:48:35.560Z,7.89
2022-08-22T03:49:57.658Z,7.53
2022-08-22T03:51:15.392Z,7.77
2022-08-22T03:52:28.109Z,7.82
2022-08-22T03:53:34.499Z,7.85
2022-08-22T03:55:07.215Z,7.83
2022-08-22T03:56:16.781Z,8.11
2022-08-22T03:57:31.982Z,7.86
2022-08-22T03:58:29.454Z,8.54
2022-08-22T03:59:40.704Z,8.52
2022-08-22T04:00:42.895Z,7.91
2022-08-22T04:01:58.302Z,8.19
2022-08-22T04:03:13.719Z,7.53
2022-08-22T04:04:11.032Z,8.22
2022-08-22T04:05:23.518Z,8.13
2022-08-22T04:06:30.676Z,8.45
2022-08-22T04:07:28.221Z,7.99
2022-08-22T04:08:49.082Z,8.30
2022-08-22T04:09:52.157Z,8.65
2022-08-22T04:10:58.359Z,8.86
2022-08-22T04:12:18.408Z,9.02
2022-08-22T04:13:34.637Z,8.25
2022-08-22T04:14:50.783Z,9.19
2022-08-22T04:15:57.116Z,8.64
2022-08-22T04:17:14.661Z,8.64
2022-08-22T04:18:14.861Z,8.90
2022-08-22T04:19:30.718Z,9.02
2022-08-22T04:20:46.520Z,8.68
2022-08-22T04:22:04.642Z,9.40
2022-08-22T04:23:17.094Z,8.50
2022-08-22T04:24:33.966Z,8.80
2022-08-22T04:25:36.492Z,8.17
2022-08-22T04:26:42.789Z,8.56
2022-08-22T04:27:45.184Z,8.14
2022-08-22T04:28:42.492Z,8.38
2022-08-22T04:29:50.297Z,9.23
2022-08-22T04:31:05.019Z,8.48
2022-08-22T04:32:14.863Z,9.16
2022-08-22T04:33:24.425Z,9.09
2022-08-22T04:34:29.580Z,8.93
2022-08-22T04:35:32.952Z,8.55
2022-08-22T04:36:42.349Z,8.86
2022-08-22T04:37:42.405Z,8.23
2022-08-22T04:38:44.713Z,8.79
2022-08-22T04:39:48.772Z,8.12
2022-08-22T04:41:08.923Z,8.32
2022-08-22T04:42:31.657Z,8.23
2022-08-22T04:43:36.491Z,8.52
2022-08-22T04:44:57.683Z,7.70
2022-08-22T04:46:00.313Z,8.59
2022-08-22T04:47:02.863Z,8.13
2022-08-22T04:48:03.040Z,7.70
2022-08-22T04:49:18.930Z,8.06
2022-08-22T04:50:19.993Z,7.70
2022-08-22T04:51:25.031Z,7.52
2022-08-22T04:52:40.540Z,7.64
2022-08-22T04:53:37.883Z,7.50
2022-08-22T04:54:53.382Z,7.46
2022-08-22T04:55:56.484Z,7.81
2022-08-22T04:57:08.894Z,7.17
2022-08-22T04:58:12.177Z,7.09
2022-08-22T04:59:16.452Z,7.80
2022-08-22T05:00:16.028Z,7.45
2022-08-22T05:01:21.284Z,7.77
2022-08-22T05:02:23.608Z,7.82
2022-08-22T05:03:26.857Z,7.95
2022-08-22T05:04:32.926Z,7.92
2022-08-22T05:05:37.870Z,8.12
2022-08-22T05:06:40.249Z,8.03
2022-08-22T05:07:42.441Z,8.28
2022-08-22T05:08:42.995Z,8.20
2022-08-22T05:09:45.006Z,8.36
2022-08-22T05:10:46.411Z,8.18
2022-08-22T05:11:47.813Z,8.49
2022-08-22T05:12:53.720Z,8.54
2022-08-22T05:13:57.466Z,7.82
2022-08-22T05:15:02.314Z,8.37
2022-08-22T05:16:04.417Z,8.16
2022-08-22T05:17:05.163Z,8.38
2022-08-22T05:18:07.413Z,8.64
2022-08-22T05:19:16.949Z,7.95
2022-08-22T05:20:17.959Z,8.07
2022-08-22T05:21:18.755Z,8.46
2022-08-22T05:22:29.193Z,7.74
2022-08-22T05:23:34.504Z,7.87
2022-08-22T05:24:42.451Z,7.47
2022-08-22T05:25:43.312Z,8.34
2022-08-22T05:26:44.166Z,7.77
2022-08-22T05:28:04.702Z,7.63
2022-08-22T05:29:08.010Z,7.94
2022-08-22T05:30:09.079Z,7.85
2022-08-22T05:31:12.791Z,8.14
2022-08-22T05:32:18.963Z,8.22
2022-08-22T05:33:26.457Z,7.77
2022-08-22T05:34:33.504Z,8.47
2022-08-22T05:35:46.051Z,8.50
2022-08-22T05:36:54.086Z,8.41
2022-08-22T05:37:55.062Z,8.13
2022-08-22T05:38:58.224Z,7.95
2022-08-22T05:40:00.391Z,8.13
2022-08-22T05:41:24.093Z,8.22
2022-08-22T05:42:31.776Z,8.17
2022-08-22T05:43:29.512Z,7.95
2022-08-22T05:44:30.820Z,7.71
2022-08-22T05:45:28.926Z,8.01
2022-08-22T05:46:46.913Z,7.40
2022-08-22T05:47:47.409Z,7.16
2022-08-22T05:48:52.935Z,8.10
2022-08-22T05:50:02.665Z,8.64
2022-08-22T05:51:09.123Z,7.86
2022-08-22T05:52:09.194Z,8.37
2022-08-22T05:53:06.636Z,8.02
2022-08-22T05:54:10.612Z,7.77
2022-08-22T05:55:07.991Z,7.90
2022-08-22T05:56:12.994Z,8.24
2022-08-22T05:57:16.338Z,7.87
2022-08-22T05:58:44.702Z,8.10
2022-08-22T05:59:44.712Z,8.20
2022-08-22T06:00:45.337Z,7.85
2022-08-22T06:01:58.689Z,8.60
2022-08-22T06:02:58.911Z,8.47
2022-08-22T06:04:08.009Z,9.29
2022-08-22T06:05:11.388Z,9.86
2022-08-22T06:06:13.999Z,10.39
2022-08-22T06:07:17.099Z,9.53
2022-08-22T06:08:21.199Z,9.51
2022-08-22T06:09:35.486Z,10.04
2022-08-22T06:10:48.211Z,9.77
2022-08-22T06:11:52.258Z,9.94
2022-08-22T06:12:49.640Z,9.87
2022-08-22T06:14:00.423Z,10.31
2022-08-22T06:14:57.811Z,9.27
2022-08-22T06:16:09.345Z,9.57
2022-08-22T06:17:11.463Z,8.98
2022-08-22T06:18:12.469Z,9.02
2022-08-22T06:19:19.058Z,9.63
2022-08-22T06:20:22.057Z,10.21
2022-08-22T06:21:19.477Z,10.18
2022-08-22T06:22:23.232Z,10.46
2022-08-22T06:23:25.849Z,11.03
2022-08-22T06:24:26.426Z,10.33
2022-08-22T06:25:31.166Z,11.10
2022-08-22T06:26:38.113Z,10.59
2022-08-22T06:27:36.351Z,11.32
2022-08-22T06:28:55.058Z,11.47
2022-08-22T06:29:57.928Z,11.78
2022-08-22T06:30:57.657Z,11.51
2022-08-22T06:31:57.208Z,11.59
2022-08-22T06:33:01.198Z,11.31
2022-08-22T06:34:08.488Z,10.99
2022-08-22T06:35:08.912Z,11.50
2022-08-22T06:36:30.449Z,12.12
2022-08-22T06:37:40.050Z,11.71
2022-08-22T06:38:53.729Z,11.01
2022-08-22T06:39:54.298Z,11.42
2022-08-22T06:40:54.643Z,11.39
2022-08-22T06:42:01.219Z,11.70
2022-08-22T06:42:59.061Z,10.44
2022-08-22T06:43:58.628Z,12.12
2022-08-22T06:45:05.762Z,11.94
2022-08-22T06:46:04.862Z,11.29
2022-08-22T06:47:06.313Z,11.71
2022-08-22T06:48:06.958Z,10.85
2022-08-22T06:49:07.470Z,10.35
2022-08-22T06:50:13.912Z,10.11
2022-08-22T06:51:15.186Z,10.60
2022-08-22T06:52:18.492Z,11.51
2022-08-22T06:53:15.855Z,11.42
2022-08-22T06:54:23.440Z,11.77
2022-08-22T06:55:22.876Z,11.09
2022-08-22T06:56:23.824Z,11.73
2022-08-22T06:57:26.929Z,13.26
2022-08-22T06:58:33.995Z,13.45
2022-08-22T06:59:37.032Z,13.14
2022-08-22T07:00:35.812Z,14.88
2022-08-22T07:01:37.851Z,15.01
2022-08-22T07:02:40.214Z,14.52
2022-08-22T07:03:41.471Z,15.89
2022-08-22T07:04:39.965Z,15.25
2022-08-22T07:05:39.732Z,14.83
2022-08-22T07:06:41.300Z,15.06
2022-08-22T07:07:38.694Z,14.76
2022-08-22T07:08:39.181Z,14.89
2022-08-22T07:09:40.697Z,13.93
2022-08-22T07:10:46.035Z,13.61
2022-08-22T07:11:43.826Z,13.87
2022-08-22T07:12:46.431Z,14.46
2022-08-22T07:13:51.657Z,14.42
2022-08-22T07:14:51.413Z,14.72
2022-08-22T07:15:54.302Z,14.09
2022-08-22T07:16:56.580Z,14.22
2022-08-22T07:17:58.739Z,12.90
2022-08-22T07:18:56.319Z,13.51
2022-08-22T07:20:05.777Z,14.25
2022-08-22T07:21:04.603Z,13.70
2022-08-22T07:22:11.261Z,13.44
2022-08-22T07:23:30.068Z,13.08
2022-08-22T07:24:31.703Z,13.95
2022-08-22T07:25:30.499Z,13.11
2022-08-22T07:26:57.261Z,13.51
2022-08-22T07:27:58.294Z,13.13
2022-08-22T07:29:00.343Z,14.02
2022-08-22T07:30:10.239Z,13.17
2022-08-22T07:31:11.063Z,13.27
2022-08-22T07:32:26.727Z,12.23
2022-08-22T07:33:27.016Z,12.92
2022-08-22T07:34:24.677Z,13.72
2022-08-22T07:35:36.521Z,14.33
2022-08-22T07:36:36.637Z,13.66
2022-08-22T07:37:34.090Z,13.22
2022-08-22T07:38:43.784Z,12.74
2022-08-22T07:39:41.284Z,13.62
2022-08-22T07:40:54.312Z,13.64
2022-08-22T07:41:51.624Z,13.62
2022-08-22T07:42:53.691Z,13.95
2022-08-22T07:43:51.632Z,14.62
2022-08-22T07:44:48.975Z,13.63
2022-08-22T07:45:49.444Z,13.80
2022-08-22T07:46:52.685Z,13.70
2022-08-22T07:48:17.198Z,13.51
2022-08-22T07:49:26.146Z,13.10
2022-08-22T07:50:27.503Z,12.98
2022-08-22T07:51:33.750Z,12.65
2022-08-22T07:52:39.390Z,13.69
2022-08-22T07:53:36.746Z,13.13
2022-08-22T07:54:38.345Z,12.27
2022-08-22T07:55:49.255Z,12.70
2022-08-22T07:56:57.782Z,12.80
2022-08-22T07:58:06.067Z,12.82
2022-08-22T07:59:13.223Z,12.69
2022-08-22T08:00:18.974Z,12.64
2022-08-22T08:01:20.031Z,13.23
2022-08-22T08:02:19.303Z,13.06
2022-08-22T08:03:20.613Z,13.02
2022-08-22T08:04:21.244Z,13.44
2022-08-22T08:05:22.185Z,12.60
2022-08-22T08:06:22.324Z,12.84
2022-08-22T08:07:22.702Z,13.03
2022-08-22T08:08:24.356Z,13.17
2022-08-22T08:09:22.171Z,12.41
2022-08-22T08:10:24.138Z,12.36
2022-08-22T08:11:24.378Z,13.01
2022-08-22T08:12:35.351Z,13.78
2022-08-22T08:13:39.449Z,13.23
2022-08-22T08:14:40.487Z,12.78
2022-08-22T08:15:40.404Z,13.15
2022-08-22T08:16:43.467Z,13.97
2022-08-22T08:17:40.989Z,13.69
2022-08-22T08:18:39.971Z,12.79
2022-08-22T08:19:44.297Z,13.43
2022-08-22T08:20:42.001Z,13.82
2022-08-22T08:21:47.114Z,13.04
2022-08-22T08:22:46.369Z,12.49
2022-08-22T08:23:46.791Z,12.36
2022-08-22T08:24:46.652Z,12.14
2022-08-22T08:25:56.233Z,12.26
2022-08-22T08:27:15.424Z,11.86
2022-08-22T08:28:31.893Z,11.85
2022-08-22T08:29:30.149Z,12.27
2022-08-22T08:30:43.132Z,12.56
2022-08-22T08:31:43.427Z,11.88
2022-08-22T08:32:47.694Z,11.42
2022-08-22T08:33:48.287Z,12.10
2022-08-22T08:34:45.878Z,11.42
2022-08-22T08:36:02.521Z,11.36
2022-08-22T08:37:12.796Z,10.83
2022-08-22T08:38:18.692Z,11.43
2022-08-22T08:39:18.897Z,11.32
2022-08-22T08:40:25.109Z,11.80
2022-08-22T08:41:34.559Z,11.28
2022-08-22T08:42:59.599Z,11.39
2022-08-22T08:44:05.813Z,11.55
2022-08-22T08:45:25.915Z,11.08
2022-08-22T08:46:32.406Z,10.99
2022-08-22T08:47:58.094Z,10.77
2022-08-22T08:49:14.322Z,10.68
2022-08-22T08:50:23.825Z,11.18
2022-08-22T08:51:24.125Z,11.36
2022-08-22T08:52:21.461Z,11.43
2022-08-22T08:53:33.980Z,11.42
2022-08-22T08:54:51.815Z,11.70
2022-08-22T08:56:04.055Z,11.02
2022-08-22T08:57:20.100Z,11.03
2022-08-22T08:58:20.592Z,10.67
2022-08-22T08:59:17.907Z,10.53
2022-08-22T09:00:27.218Z,10.50
2022-08-22T09:01:33.363Z,11.25
2022-08-22T09:02:57.139Z,10.53
2022-08-22T09:03:57.639Z,11.02
2022-08-22T09:05:10.258Z,10.54
2022-08-22T09:06:10.361Z,11.17
2022-08-22T09:07:29.456Z,11.59
2022-08-22T09:08:53.859Z,11.35
2022-08-22T09:09:59.359Z,10.72
2022-08-22T09:11:09.715Z,10.90
2022-08-22T09:12:15.189Z,11.52
2022-08-22T09:13:41.721Z,11.59
2022-08-22T09:14:57.673Z,11.34
2022-08-22T09:16:22.541Z,11.28
2022-08-22T09:17:40.598Z,11.15
2022-08-22T09:18:38.124Z,10.97
2022-08-22T09:19:58.280Z,10.79
2022-08-22T09:21:08.570Z,11.26
2022-08-22T09:22:14.654Z,10.48
2022-08-22T09:23:34.950Z,11.14
2022-08-22T09:24:47.298Z,10.88
2022-08-22T09:25:51.840Z,10.41
2022-08-22T09:26:49.259Z,11.29
2022-08-22T09:27:49.265Z,10.33
2022-08-22T09:28:49.671Z,10.78
2022-08-22T09:29:57.147Z,10.51
2022-08-22T09:30:59.922Z,10.19
2022-08-22T09:32:07.359Z,10.61
2022-08-22T09:33:16.134Z,10.37
2022-08-22T09:34:24.172Z,11.02
2022-08-22T09:35:28.763Z,10.49
2022-08-22T09:36:44.787Z,10.35
2022-08-22T09:37:51.711Z,9.53
2022-08-22T09:38:55.489Z,10.28
2022-08-22T09:40:03.723Z,10.47
2022-08-22T09:41:01.143Z,9.97
2022-08-22T09:42:13.905Z,10.56
2022-08-22T09:43:45.142Z,9.99
2022-08-22T09:44:49.971Z,10.70
2022-08-22T09:45:58.068Z,11.03
2022-08-22T09:47:08.334Z,10.54
2022-08-22T09:48:18.345Z,11.35
2022-08-22T09:49:23.756Z,10.86
2022-08-22T09:50:32.457Z,10.83
2022-08-22T09:51:34.591Z,10.74
2022-08-22T09:52:40.993Z,10.76
2022-08-22T09:54:00.624Z,10.16
2022-08-22T09:55:19.552Z,11.34
2022-08-22T09:56:39.178Z,11.25
2022-08-22T09:57:44.090Z,11.91
2022-08-22T09:59:02.880Z,12.10
2022-08-22T10:00:13.677Z,11.79
2022-08-22T10:01:32.949Z,12.77
2022-08-22T10:02:50.253Z,12.10
2022-08-22T10:04:06.337Z,13.11
2022-08-22T10:05:11.973Z,12.41
2022-08-22T10:06:17.565Z,12.28
2022-08-22T10:07:20.679Z,12.36
2022-08-22T10:08:29.975Z,12.83
2022-08-22T10:09:36.328Z,12.11
2022-08-22T10:10:46.048Z,12.34
2022-08-22T10:11:51.192Z,12.35
2022-08-22T10:13:10.369Z,13.51
2022-08-22T10:14:22.424Z,12.76
2022-08-22T10:15:20.269Z,11.85
2022-08-22T10:16:37.154Z,12.20
2022-08-22T10:17:41.014Z,12.05
2022-08-22T10:19:07.926Z,11.76
2022-08-22T10:20:15.848Z,13.00
2022-08-22T10:21:22.783Z,12.26
2022-08-22T10:22:39.316Z,12.59
2022-08-22T10:23:45.889Z,13.07
2022-08-22T10:24:58.628Z,12.19
2022-08-22T10:26:23.023Z,13.06
2022-08-22T10:27:37.456Z,12.49
2022-08-22T10:28:45.851Z,12.62
2022-08-22T10:29:49.291Z,13.16
2022-08-22T10:30:47.215Z,12.96
2022-08-22T10:31:59.116Z,11.80
2022-08-22T10:33:25.341Z,13.08
2022-08-22T10:34:44.353Z,13.24
2022-08-22T10:35:51.320Z,12.77
2022-08-22T10:36:52.900Z,12.94
2022-08-22T10:37:53.553Z,13.15
2022-08-22T10:38:55.831Z,13.11
2022-08-22T10:40:01.152Z,12.57
2022-08-22T10:41:10.526Z,13.06
2022-08-22T10:42:35.486Z,13.08
2022-08-22T10:43:36.899Z,12.14
2022-08-22T10:44:41.125Z,12.37
2022-08-22T10:45:42.895Z,11.96
2022-08-22T10:46:47.257Z,12.47
2022-08-22T10:47:50.596Z,12.72
2022-08-22T10:49:08.343Z,13.18
2022-08-22T10:50:18.659Z,12.21
2022-08-22T10:51:30.750Z,12.50
2022-08-22T10:52:38.788Z,12.97
2022-08-22T10:53:57.350Z,12.39
2022-08-22T10:55:00.841Z,12.60
2022-08-22T10:56:05.558Z,12.15
2022-08-22T10:57:06.825Z,12.12
2022-08-22T10:58:06.928Z,11.99
2022-08-22T10:59:23.703Z,12.14
2022-08-22T11:00:27.068Z,11.21
2022-08-22T11:01:38.613Z,11.64
2022-08-22T11:02:53.091Z,11.77
2022-08-22T11:04:02.660Z,11.89
2022-08-22T11:05:08.207Z,12.15
2022-08-22T11:06:29.682Z,12.03
2022-08-22T11:07:42.058Z,12.49
2022-08-22T11:09:04.538Z,12.82
2022-08-22T11:10:11.549Z,12.47
2022-08-22T11:11:21.277Z,12.79
2022-08-22T11:12:34.874Z,12.42
2022-08-22T11:13:50.979Z,12.30
2022-08-22T11:14:57.351Z,12.57
2022-08-22T11:16:01.422Z,11.67
2022-08-22T11:17:02.840Z,11.65
2022-08-22T11:18:30.649Z,11.26
2022-08-22T11:19:28.020Z,11.59
2022-08-22T11:20:36.034Z,11.56
2022-08-22T11:21:40.603Z,11.23
2022-08-22T11:22:55.782Z,11.56
2022-08-22T11:24:30.037Z,12.00
2022-08-22T11:25:52.628Z,11.19
2022-08-22T11:27:01.885Z,10.91
2022-08-22T11:28:13.604Z,10.91
2022-08-22T11:29:23.461Z,10.95
2022-08-22T11:30:30.917Z,10.65
2022-08-22T11:31:51.382Z,11.05
2022-08-22T11:32:49.736Z,10.90
2022-08-22T11:34:06.939Z,11.22
2022-08-22T11:35:17.893Z,11.45
2022-08-22T11:36:18.037Z,11.43
2022-08-22T11:37:45.008Z,11.78
2022-08-22T11:38:59.347Z,10.89
2022-08-22T11:40:01.363Z,11.32
2022-08-22T11:41:24.707Z,11.80
2022-08-22T11:42:35.626Z,11.13
2022-08-22T11:43:51.469Z,11.22
2022-08-22T11:44:57.514Z,10.86
2022-08-22T11:45:59.397Z,11.03
2022-08-22T11:46:59.544Z,11.06
2022-08-22T11:48:03.439Z,10.72
2022-08-22T11:49:13.141Z,11.46
2022-08-22T11:50:35.218Z,11.19
2022-08-22T11:51:38.687Z,11.17
2022-08-22T11:52:42.608Z,11.03
2022-08-22T11:53:45.843Z,10.72
2022-08-22T11:54:43.240Z,11.18
2022-08-22T11:55:50.537Z,11.53
2022-08-22T11:57:03.559Z,11.13
2022-08-22T11:58:20.865Z,11.10
2022-08-22T11:59:28.072Z,10.63
2022-08-22T12:00:26.611Z,10.40
2022-08-22T12:01:34.694Z,10.66
2022-08-22T12:02:44.807Z,10.51
2022-08-22T12:03:58.392Z,10.90
2022-08-22T12:05:05.201Z,10.70
2022-08-22T12:06:21.634Z,10.92
2022-08-22T12:07:28.245Z,11.19
2022-08-22T12:08:34.560Z,11.09
2022-08-22T12:09:47.788Z,11.39
2022-08-22T12:10:55.667Z,11.42
2022-08-22T12:12:13.978Z,10.98
2022-08-22T12:13:34.351Z,10.49
2022-08-22T12:14:55.916Z,10.68
2022-08-22T12:16:06.428Z,10.78
2022-08-22T12:17:05.827Z,10.64
2022-08-22T12:18:09.217Z,10.73
2022-08-22T12:19:25.577Z,10.48
2022-08-22T12:20:52.262Z,11.19
2022-08-22T12:21:55.679Z,10.95
2022-08-22T12:22:59.327Z,10.98
2022-08-22T12:24:19.319Z,10.96
2022-08-22T12:25:18.384Z,10.58
2022-08-22T12:26:38.547Z,10.94
2022-08-22T12:27:56.554Z,10.92
2022-08-22T12:29:16.786Z,11.26
2022-08-22T12:30:46.484Z,11.69
2022-08-22T12:32:15.835Z,11.05
2022-08-22T12:33:21.974Z,10.98
2022-08-22T12:34:32.613Z,10.46
2022-08-22T12:35:48.159Z,11.23
2022-08-22T12:37:07.095Z,10.51
2022-08-22T12:38:28.580Z,10.98
2022-08-22T12:39:30.036Z,11.40
2022-08-22T12:40:34.760Z,11.44
2022-08-22T12:41:53.084Z,11.11
2022-08-22T12:42:56.407Z,10.90
2022-08-22T12:43:57.694Z,10.74
2022-08-22T12:44:55.042Z,11.18
2022-08-22T12:45:58.205Z,10.81
2022-08-22T12:47:13.886Z,11.42
2022-08-22T12:48:17.503Z,11.20
2022-08-22T12:49:36.909Z,10.84
2022-08-22T12:50:53.522Z,11.08
2022-08-22T12:52:09.530Z,10.99
2022-08-22T12:53:09.981Z,10.93
2022-08-22T12:54:26.384Z,10.64
2022-08-22T12:55:32.666Z,10.70
2022-08-22T12:56:42.075Z,10.76
2022-08-22T12:57:57.037Z,10.56
2022-08-22T12:58:57.179Z,11.13
2022-08-22T12:59:59.910Z,11.02
2022-08-22T13:01:04.458Z,11.19
2022-08-22T13:02:18.616Z,11.67
2022-08-22T13:03:25.619Z,11.06
2022-08-22T13:04:33.288Z,11.26
2022-08-22T13:05:40.620Z,11.32
2022-08-22T13:06:38.750Z,11.18
2022-08-22T13:07:38.469Z,11.36
2022-08-22T13:08:39.754Z,11.42
2022-08-22T13:09:40.845Z,11.24
2022-08-22T13:11:10.021Z,10.67
2022-08-22T13:12:19.959Z,10.79
2022-08-22T13:13:36.924Z,11.11
2022-08-22T13:14:35.272Z,11.67
2022-08-22T13:15:41.947Z,11.57
2022-08-22T13:16:49.057Z,11.11
2022-08-22T13:17:51.176Z,10.67
2022-08-22T13:19:07.423Z,11.22
2022-08-22T13:20:10.972Z,11.56
2022-08-22T13:21:15.273Z,11.21
2022-08-22T13:22:20.819Z,11.15
2022-08-22T13:23:23.394Z,11.24
2022-08-22T13:24:51.873Z,10.86
2022-08-22T13:25:52.888Z,11.34
2022-08-22T13:26:58.169Z,11.49
2022-08-22T13:28:01.545Z,11.64
2022-08-22T13:29:24.538Z,11.82
2022-08-22T13:30:28.561Z,12.61
2022-08-22T13:31:28.841Z,11.61
2022-08-22T13:32:31.610Z,11.58
2022-08-22T13:33:35.074Z,9.66
2022-08-22T13:34:34.837Z,6.98
2022-08-22T13:35:57.748Z,6.69
2022-08-22T13:36:59.567Z,7.26
2022-08-22T13:38:05.131Z,7.51
2022-08-22T13:39:08.875Z,8.07
2022-08-22T13:40:14.672Z,7.50
2022-08-22T13:41:18.519Z,7.30
2022-08-22T13:42:30.300Z,7.99
2022-08-22T13:43:32.524Z,9.73
2022-08-22T13:44:46.733Z,9.92
2022-08-22T13:45:53.493Z,7.71
2022-08-22T13:47:13.039Z,5.08
2022-08-22T13:48:11.617Z,8.12
2022-08-22T13:49:12.773Z,9.52
2022-08-22T13:50:19.111Z,9.00
2022-08-22T13:51:23.653Z,10.67
2022-08-22T13:52:52.357Z,12.08
2022-08-22T13:54:15.324Z,12.67
2022-08-22T13:55:29.581Z,14.03
2022-08-22T13:56:48.013Z,14.70
2022-08-22T13:57:52.178Z,14.30
2022-08-22T13:59:01.829Z,14.41
2022-08-22T14:00:06.342Z,15.16
2022-08-22T14:01:04.231Z,15.13
2022-08-22T14:02:20.589Z,16.22
2022-08-22T14:03:24.599Z,16.45
2022-08-22T14:04:36.404Z,15.91
2022-08-22T14:05:37.357Z,16.29
2022-08-22T14:06:52.707Z,16.15
2022-08-22T14:08:12.507Z,16.18
2022-08-22T14:09:29.411Z,16.20
2022-08-22T14:10:33.268Z,16.36
2022-08-22T14:11:31.051Z,16.80
2022-08-22T14:12:50.807Z,16.51
2022-08-22T14:13:59.303Z,17.14
2022-08-22T14:14:59.884Z,17.44
2022-08-22T14:16:05.458Z,17.18
2022-08-22T14:17:14.036Z,16.50
2022-08-22T14:18:20.145Z,17.30
2022-08-22T14:19:27.526Z,17.31
2022-08-22T14:20:33.420Z,17.09
2022-08-22T14:21:40.689Z,16.94
2022-08-22T14:22:41.607Z,16.23
2022-08-22T14:23:39.344Z,15.93
2022-08-22T14:24:45.586Z,16.64
2022-08-22T14:25:44.299Z,16.31
2022-08-22T14:26:50.539Z,15.78
2022-08-22T14:27:48.201Z,15.12
2022-08-22T14:28:47.666Z,15.78
2022-08-22T14:29:51.995Z,16.16
2022-08-22T14:30:59.451Z,16.44
2022-08-22T14:32:13.826Z,15.60
2022-08-22T14:33:24.496Z,15.14
2022-08-22T14:34:22.599Z,14.42
2022-08-22T14:35:37.687Z,14.98
2022-08-22T14:36:45.843Z,14.41
2022-08-22T14:37:46.234Z,14.27
2022-08-22T14:38:51.358Z,14.31
2022-08-22T14:39:54.440Z,13.33
2022-08-22T14:40:57.818Z,13.18
2022-08-22T14:42:05.648Z,13.41